<?xml version="1.0" encoding="UTF-8" standalone="no" ?>
<gpx xmlns="http://www.topografix.com/GPX/1/1" xmlns:xsi="http://www.w3.org/2001/XMLSchema-instance" xsi:schemaLocation="http://www.topografix.com/GPX/1/1 http://www.topografix.com/GPX/1/1/gpx.xsd" version="1.1" creator="VisuGPX - https://www.visugpx.com">
  <metadata>
    <name>Sederon - J3 matin La Rochette du Buis</name>
    <desc><![CDATA[Sederon - J3 matin La Rochette du Buis dddddddddddddddddddddddddddddddddddddddddddddddd]]></desc>
  </metadata>
  <trk>
    <name><![CDATA[9257159-Sederon - J3 matin]]></name>
    <trkseg>
      <trkpt lat="44.22909" lon="5.50549">
        <ele>834</ele>
        <time>2018-10-29T11:00:45Z</time>
      </trkpt>
      <trkpt lat="44.22946" lon="5.50427">
        <ele>832</ele>
        <time>2018-10-29T11:01:45Z</time>
      </trkpt>
      <trkpt lat="44.23026" lon="5.50299">
        <ele>829</ele>
        <time>2018-10-29T11:02:45Z</time>
      </trkpt>
      <trkpt lat="44.2303" lon="5.50248">
        <ele>825</ele>
        <time>2018-10-29T11:03:45Z</time>
      </trkpt>
      <trkpt lat="44.23388" lon="5.50085">
        <ele>833</ele>
        <time>2018-10-29T11:04:45Z</time>
      </trkpt>
      <trkpt lat="44.23644" lon="5.50146">
        <ele>839</ele>
        <time>2018-10-29T11:05:45Z</time>
      </trkpt>
      <trkpt lat="44.24036" lon="5.50284">
        <ele>845</ele>
        <time>2018-10-29T11:06:45Z</time>
      </trkpt>
      <trkpt lat="44.24251" lon="5.50217">
        <ele>850</ele>
        <time>2018-10-29T11:07:45Z</time>
      </trkpt>
      <trkpt lat="44.24419" lon="5.50121">
        <ele>858</ele>
        <time>2018-10-29T11:08:45Z</time>
      </trkpt>
      <trkpt lat="44.24445" lon="5.50044">
        <ele>864</ele>
        <time>2018-10-29T11:09:45Z</time>
      </trkpt>
      <trkpt lat="44.24445" lon="5.49942">
        <ele>872</ele>
        <time>2018-10-29T11:10:45Z</time>
      </trkpt>
      <trkpt lat="44.2458" lon="5.49835">
        <ele>898</ele>
        <time>2018-10-29T11:11:45Z</time>
      </trkpt>
      <trkpt lat="44.24707" lon="5.49821">
        <ele>913</ele>
        <time>2018-10-29T11:12:45Z</time>
      </trkpt>
      <trkpt lat="44.24772" lon="5.49679">
        <ele>934</ele>
        <time>2018-10-29T11:13:45Z</time>
      </trkpt>
      <trkpt lat="44.24873" lon="5.4968">
        <ele>948</ele>
        <time>2018-10-29T11:14:45Z</time>
      </trkpt>
      <trkpt lat="44.24969" lon="5.49662">
        <ele>965</ele>
        <time>2018-10-29T11:15:45Z</time>
      </trkpt>
      <trkpt lat="44.25059" lon="5.49738">
        <ele>987</ele>
        <time>2018-10-29T11:16:45Z</time>
      </trkpt>
      <trkpt lat="44.25082" lon="5.49911">
        <ele>989</ele>
        <time>2018-10-29T11:17:45Z</time>
      </trkpt>
      <trkpt lat="44.251" lon="5.50063">
        <ele>995</ele>
        <time>2018-10-29T11:18:45Z</time>
      </trkpt>
      <trkpt lat="44.25121" lon="5.50171">
        <ele>1006</ele>
        <time>2018-10-29T11:19:45Z</time>
      </trkpt>
      <trkpt lat="44.25124" lon="5.50287">
        <ele>1013</ele>
        <time>2018-10-29T11:20:45Z</time>
      </trkpt>
      <trkpt lat="44.25165" lon="5.50074">
        <ele>1029</ele>
        <time>2018-10-29T11:21:45Z</time>
      </trkpt>
      <trkpt lat="44.25155" lon="5.49872">
        <ele>1032</ele>
        <time>2018-10-29T11:22:45Z</time>
      </trkpt>
      <trkpt lat="44.25204" lon="5.49695">
        <ele>1052</ele>
        <time>2018-10-29T11:23:45Z</time>
      </trkpt>
      <trkpt lat="44.2523" lon="5.49749">
        <ele>1057</ele>
        <time>2018-10-29T11:24:45Z</time>
      </trkpt>
      <trkpt lat="44.25315" lon="5.49594">
        <ele>1054</ele>
        <time>2018-10-29T11:25:45Z</time>
      </trkpt>
      <trkpt lat="44.25387" lon="5.49395">
        <ele>1050</ele>
        <time>2018-10-29T11:26:45Z</time>
      </trkpt>
      <trkpt lat="44.25527" lon="5.49085">
        <ele>1027</ele>
        <time>2018-10-29T11:27:45Z</time>
      </trkpt>
      <trkpt lat="44.25594" lon="5.48944">
        <ele>1003</ele>
        <time>2018-10-29T11:28:45Z</time>
      </trkpt>
      <trkpt lat="44.25592" lon="5.4867">
        <ele>1006</ele>
        <time>2018-10-29T11:29:45Z</time>
      </trkpt>
      <trkpt lat="44.25638" lon="5.48471">
        <ele>1000</ele>
        <time>2018-10-29T11:30:45Z</time>
      </trkpt>
      <trkpt lat="44.25623" lon="5.48424">
        <ele>1012</ele>
        <time>2018-10-29T11:31:45Z</time>
      </trkpt>
      <trkpt lat="44.2562" lon="5.48334">
        <ele>1024</ele>
        <time>2018-10-29T11:32:45Z</time>
      </trkpt>
      <trkpt lat="44.25654" lon="5.48154">
        <ele>1025</ele>
        <time>2018-10-29T11:33:45Z</time>
      </trkpt>
      <trkpt lat="44.25615" lon="5.48064">
        <ele>1046</ele>
        <time>2018-10-29T11:34:45Z</time>
      </trkpt>
      <trkpt lat="44.2563" lon="5.47901">
        <ele>1043</ele>
        <time>2018-10-29T11:35:45Z</time>
      </trkpt>
      <trkpt lat="44.25643" lon="5.47746">
        <ele>1048</ele>
        <time>2018-10-29T11:36:45Z</time>
      </trkpt>
      <trkpt lat="44.25843" lon="5.47252">
        <ele>1070</ele>
        <time>2018-10-29T11:37:45Z</time>
      </trkpt>
      <trkpt lat="44.25901" lon="5.47185">
        <ele>1074</ele>
        <time>2018-10-29T11:38:45Z</time>
      </trkpt>
      <trkpt lat="44.25997" lon="5.4706">
        <ele>1081</ele>
        <time>2018-10-29T11:39:45Z</time>
      </trkpt>
      <trkpt lat="44.26101" lon="5.46951">
        <ele>1087</ele>
        <time>2018-10-29T11:40:45Z</time>
      </trkpt>
      <trkpt lat="44.2614" lon="5.46954">
        <ele>1086</ele>
        <time>2018-10-29T11:41:45Z</time>
      </trkpt>
      <trkpt lat="44.26184" lon="5.46991">
        <ele>1085</ele>
        <time>2018-10-29T11:42:45Z</time>
      </trkpt>
      <trkpt lat="44.26214" lon="5.47006">
        <ele>1082</ele>
        <time>2018-10-29T11:43:45Z</time>
      </trkpt>
      <trkpt lat="44.26173" lon="5.4693">
        <ele>1084</ele>
        <time>2018-10-29T11:44:45Z</time>
      </trkpt>
      <trkpt lat="44.26143" lon="5.46884">
        <ele>1084</ele>
        <time>2018-10-29T11:45:45Z</time>
      </trkpt>
      <trkpt lat="44.26136" lon="5.46796">
        <ele>1080</ele>
        <time>2018-10-29T11:46:45Z</time>
      </trkpt>
      <trkpt lat="44.2614" lon="5.46705">
        <ele>1076</ele>
        <time>2018-10-29T11:47:45Z</time>
      </trkpt>
      <trkpt lat="44.26171" lon="5.4662">
        <ele>1062</ele>
        <time>2018-10-29T11:48:45Z</time>
      </trkpt>
      <trkpt lat="44.26225" lon="5.46384">
        <ele>1071</ele>
        <time>2018-10-29T11:49:45Z</time>
      </trkpt>
      <trkpt lat="44.26251" lon="5.4622">
        <ele>1070</ele>
        <time>2018-10-29T11:50:45Z</time>
      </trkpt>
      <trkpt lat="44.26221" lon="5.46068">
        <ele>1086</ele>
        <time>2018-10-29T11:51:45Z</time>
      </trkpt>
      <trkpt lat="44.26223" lon="5.45907">
        <ele>1099</ele>
        <time>2018-10-29T11:52:45Z</time>
      </trkpt>
      <trkpt lat="44.26247" lon="5.45716">
        <ele>1103</ele>
        <time>2018-10-29T11:53:45Z</time>
      </trkpt>
      <trkpt lat="44.26245" lon="5.45528">
        <ele>1117</ele>
        <time>2018-10-29T11:54:45Z</time>
      </trkpt>
      <trkpt lat="44.2626" lon="5.45373">
        <ele>1107</ele>
        <time>2018-10-29T11:55:45Z</time>
      </trkpt>
      <trkpt lat="44.26275" lon="5.4524">
        <ele>1094</ele>
        <time>2018-10-29T11:56:45Z</time>
      </trkpt>
      <trkpt lat="44.26245" lon="5.45164">
        <ele>1095</ele>
        <time>2018-10-29T11:57:45Z</time>
      </trkpt>
      <trkpt lat="44.2629" lon="5.45079">
        <ele>1090</ele>
        <time>2018-10-29T11:58:45Z</time>
      </trkpt>
      <trkpt lat="44.26277" lon="5.44979">
        <ele>1098</ele>
        <time>2018-10-29T11:59:45Z</time>
      </trkpt>
      <trkpt lat="44.26351" lon="5.44703">
        <ele>1095</ele>
        <time>2018-10-29T12:00:45Z</time>
      </trkpt>
      <trkpt lat="44.26371" lon="5.44551">
        <ele>1089</ele>
        <time>2018-10-29T12:01:45Z</time>
      </trkpt>
      <trkpt lat="44.26347" lon="5.44475">
        <ele>1084</ele>
        <time>2018-10-29T12:02:45Z</time>
      </trkpt>
      <trkpt lat="44.26369" lon="5.44341">
        <ele>1073</ele>
        <time>2018-10-29T12:03:45Z</time>
      </trkpt>
      <trkpt lat="44.26364" lon="5.44123">
        <ele>1052</ele>
        <time>2018-10-29T12:04:45Z</time>
      </trkpt>
      <trkpt lat="44.26393" lon="5.43968">
        <ele>1043</ele>
        <time>2018-10-29T12:05:45Z</time>
      </trkpt>
      <trkpt lat="44.2644" lon="5.43847">
        <ele>1033</ele>
        <time>2018-10-29T12:06:45Z</time>
      </trkpt>
      <trkpt lat="44.26525" lon="5.43728">
        <ele>1025</ele>
        <time>2018-10-29T12:07:45Z</time>
      </trkpt>
      <trkpt lat="44.26577" lon="5.43568">
        <ele>1012</ele>
        <time>2018-10-29T12:08:45Z</time>
      </trkpt>
      <trkpt lat="44.2664" lon="5.43461">
        <ele>1003</ele>
        <time>2018-10-29T12:09:45Z</time>
      </trkpt>
      <trkpt lat="44.26849" lon="5.4334">
        <ele>982</ele>
        <time>2018-10-29T12:10:45Z</time>
      </trkpt>
      <trkpt lat="44.26934" lon="5.43301">
        <ele>960</ele>
        <time>2018-10-29T12:11:45Z</time>
      </trkpt>
      <trkpt lat="44.27008" lon="5.43164">
        <ele>933</ele>
        <time>2018-10-29T12:12:45Z</time>
      </trkpt>
      <trkpt lat="44.27082" lon="5.43096">
        <ele>911</ele>
        <time>2018-10-29T12:13:45Z</time>
      </trkpt>
      <trkpt lat="44.271" lon="5.43041">
        <ele>902</ele>
        <time>2018-10-29T12:14:45Z</time>
      </trkpt>
      <trkpt lat="44.27145" lon="5.42945">
        <ele>890</ele>
        <time>2018-10-29T12:15:45Z</time>
      </trkpt>
      <trkpt lat="44.27168" lon="5.42891">
        <ele>891</ele>
        <time>2018-10-29T12:16:45Z</time>
      </trkpt>
      <trkpt lat="44.27196" lon="5.42785">
        <ele>880</ele>
        <time>2018-10-29T12:17:45Z</time>
      </trkpt>
      <trkpt lat="44.27198" lon="5.42731">
        <ele>879</ele>
        <time>2018-10-29T12:18:45Z</time>
      </trkpt>
      <trkpt lat="44.27204" lon="5.42671">
        <ele>875</ele>
        <time>2018-10-29T12:19:45Z</time>
      </trkpt>
      <trkpt lat="44.27214" lon="5.42606">
        <ele>870</ele>
        <time>2018-10-29T12:20:45Z</time>
      </trkpt>
      <trkpt lat="44.27231" lon="5.42559">
        <ele>868</ele>
        <time>2018-10-29T12:21:45Z</time>
      </trkpt>
      <trkpt lat="44.27234" lon="5.42532">
        <ele>865</ele>
        <time>2018-10-29T12:22:45Z</time>
      </trkpt>
      <trkpt lat="44.27205" lon="5.42512">
        <ele>856</ele>
        <time>2018-10-29T12:23:45Z</time>
      </trkpt>
      <trkpt lat="44.27154" lon="5.42529">
        <ele>846</ele>
        <time>2018-10-29T12:24:45Z</time>
      </trkpt>
      <trkpt lat="44.271" lon="5.42562">
        <ele>832</ele>
        <time>2018-10-29T12:25:45Z</time>
      </trkpt>
      <trkpt lat="44.27036" lon="5.42582">
        <ele>819</ele>
        <time>2018-10-29T12:26:45Z</time>
      </trkpt>
      <trkpt lat="44.27006" lon="5.42572">
        <ele>810</ele>
        <time>2018-10-29T12:27:45Z</time>
      </trkpt>
      <trkpt lat="44.26973" lon="5.42511">
        <ele>801</ele>
        <time>2018-10-29T12:28:45Z</time>
      </trkpt>
      <trkpt lat="44.2695" lon="5.42487">
        <ele>798</ele>
        <time>2018-10-29T12:29:45Z</time>
      </trkpt>
      <trkpt lat="44.26928" lon="5.42426">
        <ele>782</ele>
        <time>2018-10-29T12:30:45Z</time>
      </trkpt>
      <trkpt lat="44.26888" lon="5.4241">
        <ele>770</ele>
        <time>2018-10-29T12:31:45Z</time>
      </trkpt>
      <trkpt lat="44.26827" lon="5.42446">
        <ele>769</ele>
        <time>2018-10-29T12:32:45Z</time>
      </trkpt>
      <trkpt lat="44.26778" lon="5.42455">
        <ele>759</ele>
        <time>2018-10-29T12:33:45Z</time>
      </trkpt>
      <trkpt lat="44.26727" lon="5.4244">
        <ele>745</ele>
        <time>2018-10-29T12:34:45Z</time>
      </trkpt>
      <trkpt lat="44.26771" lon="5.42402">
        <ele>745</ele>
        <time>2018-10-29T12:35:45Z</time>
      </trkpt>
      <trkpt lat="44.26744" lon="5.4235">
        <ele>740</ele>
        <time>2018-10-29T12:36:45Z</time>
      </trkpt>
      <trkpt lat="44.26774" lon="5.42263">
        <ele>742</ele>
        <time>2018-10-29T12:37:45Z</time>
      </trkpt>
      <trkpt lat="44.26829" lon="5.42164">
        <ele>753</ele>
        <time>2018-10-29T12:38:45Z</time>
      </trkpt>
      <trkpt lat="44.26877" lon="5.42103">
        <ele>769</ele>
        <time>2018-10-29T12:39:45Z</time>
      </trkpt>
      <trkpt lat="44.2691" lon="5.42027">
        <ele>783</ele>
        <time>2018-10-29T12:40:45Z</time>
      </trkpt>
      <trkpt lat="44.26921" lon="5.41993">
        <ele>785</ele>
        <time>2018-10-29T12:41:45Z</time>
      </trkpt>
      <trkpt lat="44.26915" lon="5.42047">
        <ele>784</ele>
        <time>2018-10-29T12:42:45Z</time>
      </trkpt>
      <trkpt lat="44.26924" lon="5.42082">
        <ele>785</ele>
        <time>2018-10-29T12:43:45Z</time>
      </trkpt>
      <trkpt lat="44.26931" lon="5.42102">
        <ele>780</ele>
        <time>2018-10-29T12:44:45Z</time>
      </trkpt>
      <trkpt lat="44.26948" lon="5.42085">
        <ele>783</ele>
        <time>2018-10-29T12:45:45Z</time>
      </trkpt>
      <trkpt lat="44.26949" lon="5.4207">
        <ele>784</ele>
        <time>2018-10-29T12:46:45Z</time>
      </trkpt>
      <trkpt lat="44.26954" lon="5.42088">
        <ele>782</ele>
        <time>2018-10-29T12:47:45Z</time>
      </trkpt>
      <trkpt lat="44.26966" lon="5.42081">
        <ele>782</ele>
        <time>2018-10-29T12:48:45Z</time>
      </trkpt>
      <trkpt lat="44.26973" lon="5.42067">
        <ele>783</ele>
        <time>2018-10-29T12:49:45Z</time>
      </trkpt>
      <trkpt lat="44.2698" lon="5.42048">
        <ele>785</ele>
        <time>2018-10-29T12:50:45Z</time>
      </trkpt>
      <trkpt lat="44.26988" lon="5.42024">
        <ele>787</ele>
        <time>2018-10-29T12:51:45Z</time>
      </trkpt>
      <trkpt lat="44.26998" lon="5.41998">
        <ele>791</ele>
        <time>2018-10-29T12:52:45Z</time>
      </trkpt>
      <trkpt lat="44.26986" lon="5.41979">
        <ele>790</ele>
        <time>2018-10-29T12:53:45Z</time>
      </trkpt>
      <trkpt lat="44.26965" lon="5.41983">
        <ele>788</ele>
        <time>2018-10-29T12:54:45Z</time>
      </trkpt>
      <trkpt lat="44.26952" lon="5.41995">
        <ele>787</ele>
        <time>2018-10-29T12:55:45Z</time>
      </trkpt>
      <trkpt lat="44.2696" lon="5.4197">
        <ele>788</ele>
        <time>2018-10-29T12:56:45Z</time>
      </trkpt>
      <trkpt lat="44.26984" lon="5.41949">
        <ele>789</ele>
        <time>2018-10-29T12:57:45Z</time>
      </trkpt>
      <trkpt lat="44.26961" lon="5.41937">
        <ele>787</ele>
        <time>2018-10-29T12:58:45Z</time>
      </trkpt>
      <trkpt lat="44.26965" lon="5.41904">
        <ele>788</ele>
        <time>2018-10-29T12:59:45Z</time>
      </trkpt>
      <trkpt lat="44.27032" lon="5.41751">
        <ele>794</ele>
        <time>2018-10-29T13:00:45Z</time>
      </trkpt>
      <trkpt lat="44.27041" lon="5.41693">
        <ele>795</ele>
        <time>2018-10-29T13:01:45Z</time>
      </trkpt>
      <trkpt lat="44.27018" lon="5.41507">
        <ele>801</ele>
        <time>2018-10-29T13:02:45Z</time>
      </trkpt>
      <trkpt lat="44.27045" lon="5.41363">
        <ele>803</ele>
        <time>2018-10-29T13:03:45Z</time>
      </trkpt>
      <trkpt lat="44.27097" lon="5.41303">
        <ele>800</ele>
        <time>2018-10-29T13:04:45Z</time>
      </trkpt>
      <trkpt lat="44.27183" lon="5.4126">
        <ele>804</ele>
        <time>2018-10-29T13:05:45Z</time>
      </trkpt>
      <trkpt lat="44.27243" lon="5.41192">
        <ele>810</ele>
        <time>2018-10-29T13:06:45Z</time>
      </trkpt>
      <trkpt lat="44.27288" lon="5.41076">
        <ele>821</ele>
        <time>2018-10-29T13:07:45Z</time>
      </trkpt>
      <trkpt lat="44.27371" lon="5.41029">
        <ele>824</ele>
        <time>2018-10-29T13:08:45Z</time>
      </trkpt>
      <trkpt lat="44.2739" lon="5.41076">
        <ele>826</ele>
        <time>2018-10-29T13:09:45Z</time>
      </trkpt>
      <trkpt lat="44.27397" lon="5.41121">
        <ele>827</ele>
        <time>2018-10-29T13:10:45Z</time>
      </trkpt>
      <trkpt lat="44.27402" lon="5.41141">
        <ele>829</ele>
        <time>2018-10-29T13:11:45Z</time>
      </trkpt>
      <trkpt lat="44.27422" lon="5.41166">
        <ele>833</ele>
        <time>2018-10-29T13:12:45Z</time>
      </trkpt>
      <trkpt lat="44.27421" lon="5.41184">
        <ele>834</ele>
        <time>2018-10-29T13:13:45Z</time>
      </trkpt>
      <trkpt lat="44.27441" lon="5.41192">
        <ele>838</ele>
        <time>2018-10-29T13:14:45Z</time>
      </trkpt>
      <trkpt lat="44.27457" lon="5.41213">
        <ele>842</ele>
        <time>2018-10-29T13:15:45Z</time>
      </trkpt>
      <trkpt lat="44.27503" lon="5.41231">
        <ele>850</ele>
        <time>2018-10-29T13:16:45Z</time>
      </trkpt>
      <trkpt lat="44.27539" lon="5.41257">
        <ele>846</ele>
        <time>2018-10-29T13:17:45Z</time>
      </trkpt>
      <trkpt lat="44.27528" lon="5.41336">
        <ele>853</ele>
        <time>2018-10-29T13:18:45Z</time>
      </trkpt>
      <trkpt lat="44.27504" lon="5.41368">
        <ele>858</ele>
        <time>2018-10-29T13:19:45Z</time>
      </trkpt>
      <trkpt lat="44.27491" lon="5.41386">
        <ele>858</ele>
        <time>2018-10-29T13:20:45Z</time>
      </trkpt>
    </trkseg>
  </trk>
</gpx>